Wetterstation Vordersexau
Wetterdaten: Woche 27.08.18 - 02.09.18 (KW35)
Datum Zeit Temp. A. Feuchte A. Luftdruck Regen Wind Richtung Taupunkt Windchill Windben
27.08.2018 00:00 14,3 C 71 % 1012,7 hPa 0,0 l/m 0,0 km/h O-SO 9,1 C 14,3 C 0,0 km/h
27.08.2018 01:00 14,1 C 71 % 1012,8 hPa 0,0 l/m 0,0 km/h SO 8,9 C 14,1 C 0,0 km/h
27.08.2018 02:00 13,9 C 72 % 1012,8 hPa 0,0 l/m 0,0 km/h SO 8,9 C 13,9 C 0,0 km/h
27.08.2018 03:00 13,8 C 73 % 1012,7 hPa 0,0 l/m 0,0 km/h SO 9,0 C 13,8 C 0,0 km/h
27.08.2018 04:00 13,6 C 74 % 1012,6 hPa 0,0 l/m 0,0 km/h SO 9,1 C 13,6 C 0,0 km/h
27.08.2018 05:00 12,9 C 76 % 1012,3 hPa 0,0 l/m 0,0 km/h O-SO 8,8 C 12,9 C 0,0 km/h
27.08.2018 06:00 12,5 C 77 % 1012,4 hPa 0,0 l/m 0,0 km/h SO 8,6 C 12,5 C 0,0 km/h
27.08.2018 07:00 12,8 C 77 % 1012,7 hPa 0,0 l/m 0,0 km/h O-SO 8,9 C 12,8 C 0,0 km/h
27.08.2018 08:00 15,9 C 70 % 1013,0 hPa 0,0 l/m 0,0 km/h SW 10,4 C 15,9 C 0,0 km/h
27.08.2018 09:00 19,9 C 47 % 1013,1 hPa 0,0 l/m 4,5 km/h S-SW 8,3 C 19,9 C 2,5 km/h
27.08.2018 10:00 22,4 C 39 % 1013,4 hPa 0,0 l/m 24,6 km/h SW 7,8 C 18,7 C 13,7 km/h
27.08.2018 11:00 22,1 C 40 % 1013,4 hPa 0,0 l/m 18,1 km/h SW 7,9 C 19,2 C 10,1 km/h
27.08.2018 12:00 22,3 C 41 % 1013,4 hPa 0,0 l/m 2,6 km/h SW 8,4 C 22,3 C 1,4 km/h
27.08.2018 13:00 22,4 C 46 % 1013,2 hPa 0,0 l/m 0,0 km/h S-SW 10,2 C 22,4 C 0,0 km/h
27.08.2018 14:00 24,8 C 43 % 1013,0 hPa 0,0 l/m 14,3 km/h SW 11,4 C 23,2 C 7,9 km/h
27.08.2018 15:00 25,5 C 43 % 1012,8 hPa 0,0 l/m 18,1 km/h W 12,0 C 23,5 C 10,1 km/h
27.08.2018 16:00 25,1 C 46 % 1012,9 hPa 0,0 l/m 20,7 km/h W-SW 12,7 C 22,7 C 11,5 km/h
27.08.2018 17:00 24,5 C 50 % 1013,1 hPa 0,0 l/m 0,0 km/h NW 13,4 C 24,5 C 0,0 km/h
27.08.2018 18:00 23,5 C 55 % 1013,7 hPa 0,0 l/m 0,0 km/h NW 13,9 C 23,5 C 0,0 km/h
27.08.2018 19:00 22,1 C 64 % 1014,3 hPa 0,0 l/m 0,0 km/h N-NW 15,0 C 22,1 C 0,0 km/h
27.08.2018 20:00 20,3 C 74 % 1014,9 hPa 0,0 l/m 0,0 km/h N-NW 15,5 C 20,3 C 0,0 km/h
27.08.2018 21:00 19,1 C 78 % 1015,3 hPa 0,0 l/m 0,0 km/h N-NO 15,2 C 19,1 C 0,0 km/h
27.08.2018 22:00 18,2 C 79 % 1015,6 hPa 0,0 l/m 0,0 km/h N-NO 14,5 C 18,2 C 0,0 km/h
27.08.2018 23:00 17,2 C 81 % 1016,0 hPa 0,0 l/m 0,0 km/h N-NO 13,9 C 17,2 C 0,0 km/h
28.08.2018 00:00 16,1 C 82 % 1016,1 hPa 0,0 l/m 0,0 km/h N-NO 13,0 C 16,1 C 0,0 km/h
28.08.2018 01:00 15,9 C 82 % 1016,3 hPa 0,0 l/m 0,0 km/h N-NO 12,8 C 15,9 C 0,0 km/h
28.08.2018 02:00 15,7 C 82 % 1016,5 hPa 0,0 l/m 0,0 km/h N-NO 12,6 C 15,7 C 0,0 km/h
28.08.2018 03:00 15,2 C 82 % 1016,5 hPa 0,0 l/m 0,0 km/h N-NO 12,1 C 15,2 C 0,0 km/h
28.08.2018 04:00 14,5 C 83 % 1016,6 hPa 0,0 l/m 0,0 km/h N-NO 11,6 C 14,5 C 0,0 km/h
28.08.2018 05:00 14,1 C 82 % 1016,6 hPa 0,0 l/m 0,0 km/h N-NO 11,1 C 14,1 C 0,0 km/h
28.08.2018 06:00 13,8 C 82 % 1016,8 hPa 0,0 l/m 0,0 km/h N-NO 10,8 C 13,8 C 0,0 km/h
28.08.2018 07:00 14,4 C 81 % 1017,0 hPa 0,0 l/m 0,0 km/h NW 11,2 C 14,4 C 0,0 km/h
28.08.2018 08:00 17,3 C 81 % 1017,1 hPa 0,0 l/m 0,0 km/h NW 14,0 C 17,3 C 0,0 km/h
28.08.2018 09:00 18,0 C 83 % 1017,0 hPa 0,0 l/m 0,0 km/h N-NW 15,1 C 18,0 C 0,0 km/h
28.08.2018 10:00 20,1 C 79 % 1016,9 hPa 0,0 l/m 0,0 km/h W 16,3 C 20,1 C 0,0 km/h
28.08.2018 11:00 22,1 C 73 % 1016,3 hPa 0,0 l/m 0,0 km/h W-SW 17,0 C 22,1 C 0,0 km/h
28.08.2018 12:00 24,2 C 65 % 1015,9 hPa 0,0 l/m 0,0 km/h N-NW 17,2 C 24,2 C 0,0 km/h
28.08.2018 13:00 25,8 C 58 % 1015,3 hPa 0,0 l/m 0,0 km/h W-SW 16,9 C 25,8 C 0,0 km/h
28.08.2018 14:00 26,4 C 54 % 1014,4 hPa 0,0 l/m 4,5 km/h N-NW 16,3 C 26,4 C 2,5 km/h
28.08.2018 15:00 27,2 C 52 % 1014,1 hPa 0,0 l/m 0,0 km/h W 16,5 C 27,2 C 0,0 km/h
28.08.2018 16:00 27,8 C 50 % 1013,6 hPa 0,0 l/m 0,0 km/h N-NW 16,4 C 27,8 C 0,0 km/h
28.08.2018 17:00 28,1 C 49 % 1013,5 hPa 0,0 l/m 0,0 km/h N-NW 16,4 C 28,1 C 0,0 km/h
28.08.2018 18:00 27,1 C 51 % 1013,1 hPa 0,0 l/m 0,0 km/h N-NW 16,1 C 27,1 C 0,0 km/h
28.08.2018 19:00 24,9 C 58 % 1012,8 hPa 0,0 l/m 0,0 km/h N 16,1 C 24,9 C 0,0 km/h
28.08.2018 20:00 22,1 C 65 % 1013,0 hPa 0,0 l/m 0,0 km/h O-SO 15,2 C 22,1 C 0,0 km/h
28.08.2018 21:00 20,6 C 70 % 1013,1 hPa 0,0 l/m 0,0 km/h O-SO 14,9 C 20,6 C 0,0 km/h
28.08.2018 22:00 19,4 C 74 % 1012,5 hPa 0,0 l/m 0,0 km/h O-SO 14,6 C 19,4 C 0,0 km/h
28.08.2018 23:00 17,9 C 77 % 1012,2 hPa 0,0 l/m 0,0 km/h O-SO 13,8 C 17,9 C 0,0 km/h
29.08.2018 00:00 16,6 C 79 % 1012,3 hPa 0,0 l/m 0,0 km/h O 12,9 C 16,6 C 0,0 km/h
29.08.2018 01:00 15,5 C 82 % 1012,6 hPa 0,0 l/m 0,0 km/h O 12,4 C 15,5 C 0,0 km/h
29.08.2018 02:00 15,3 C 82 % 1011,9 hPa 0,0 l/m 0,0 km/h O 12,2 C 15,3 C 0,0 km/h
29.08.2018 03:00 14,4 C 82 % 1012,3 hPa 0,0 l/m 0,0 km/h O 11,4 C 14,4 C 0,0 km/h
29.08.2018 04:00 14,4 C 83 % 1012,0 hPa 0,0 l/m 0,0 km/h O 11,5 C 14,4 C 0,0 km/h
29.08.2018 05:00 14,6 C 83 % 1011,8 hPa 0,0 l/m 0,0 km/h O-NO 11,7 C 14,6 C 0,0 km/h
29.08.2018 06:00 14,1 C 82 % 1012,0 hPa 0,0 l/m 0,0 km/h O-SO 11,1 C 14,1 C 0,0 km/h
29.08.2018 07:00 15,2 C 83 % 1011,0 hPa 0,0 l/m 0,0 km/h O 12,3 C 15,2 C 0,0 km/h
29.08.2018 08:00 17,3 C 82 % 1011,6 hPa 0,0 l/m 0,0 km/h O 14,2 C 17,3 C 0,0 km/h
29.08.2018 09:00 19,9 C 79 % 1011,3 hPa 0,0 l/m 0,0 km/h O-SO 16,1 C 19,9 C 0,0 km/h
29.08.2018 10:00 24,0 C 68 % 1010,8 hPa 0,0 l/m 0,0 km/h W 17,7 C 24,0 C 0,0 km/h
29.08.2018 11:00 26,3 C 57 % 1011,2 hPa 0,0 l/m 0,0 km/h S-SO 17,1 C 26,3 C 0,0 km/h
29.08.2018 12:00 26,1 C 56 % 1011,1 hPa 0,0 l/m 18,8 km/h W 16,6 C 24,2 C 10,4 km/h
29.08.2018 13:00 26,5 C 54 % 1011,0 hPa 0,0 l/m 0,0 km/h N-NW 16,4 C 26,5 C 0,0 km/h
29.08.2018 14:00 27,6 C 51 % 1011,1 hPa 0,0 l/m 14,9 km/h W-SW 16,5 C 26,5 C 8,3 km/h
29.08.2018 15:00 23,2 C 67 % 1012,6 hPa 0,0 l/m 9,7 km/h S-SW 16,7 C 22,3 C 5,4 km/h
29.08.2018 16:00 21,4 C 78 % 1011,8 hPa 0,5 l/m 0,0 km/h S 17,4 C 21,4 C 0,0 km/h
29.08.2018 17:00 23,9 C 67 % 1011,2 hPa 0,0 l/m 15,6 km/h SO 17,4 C 21,9 C 8,6 km/h
29.08.2018 18:00 23,3 C 65 % 1011,3 hPa 0,0 l/m 0,0 km/h S-SO 16,3 C 23,3 C 0,0 km/h
29.08.2018 19:00 21,4 C 72 % 1011,7 hPa 0,0 l/m 1,9 km/h S 16,1 C 21,4 C 1,1 km/h
29.08.2018 20:00 20,6 C 74 % 1013,1 hPa 0,5 l/m 0,0 km/h W-SW 15,8 C 20,6 C 0,0 km/h
29.08.2018 21:00 20,4 C 75 % 1013,7 hPa 0,0 l/m 9,7 km/h SW 15,8 C 19,2 C 5,4 km/h
29.08.2018 22:00 18,5 C 81 % 1014,3 hPa 4,1 l/m 9,1 km/h W-SW 15,2 C 17,3 C 5,0 km/h
29.08.2018 23:00 17,5 C 80 % 1014,5 hPa 0,5 l/m 1,9 km/h S-SW 14,0 C 17,5 C 1,1 km/h
30.08.2018 00:00 17,3 C 78 % 1015,2 hPa 1,0 l/m 3,9 km/h S-SW 13,4 C 17,3 C 2,2 km/h
30.08.2018 01:00 17,3 C 76 % 1015,5 hPa 0,0 l/m 11,0 km/h W-SW 13,0 C 15,3 C 6,1 km/h
30.08.2018 02:00 17,1 C 73 % 1015,9 hPa 0,5 l/m 1,3 km/h W-NW 12,2 C 17,1 C 0,7 km/h
30.08.2018 03:00 16,6 C 76 % 1016,5 hPa 0,0 l/m 0,0 km/h NW 12,3 C 16,6 C 0,0 km/h
30.08.2018 04:00 16,4 C 79 % 1016,7 hPa 0,0 l/m 0,0 km/h NW 12,7 C 16,4 C 0,0 km/h
30.08.2018 05:00 16,1 C 80 % 1016,8 hPa 0,0 l/m 0,0 km/h NW 12,6 C 16,1 C 0,0 km/h
30.08.2018 06:00 15,9 C 81 % 1016,9 hPa 0,0 l/m 0,0 km/h NW 12,6 C 15,9 C 0,0 km/h
30.08.2018 07:00 15,8 C 80 % 1017,7 hPa 0,0 l/m 0,0 km/h W-SW 12,4 C 15,8 C 0,0 km/h
30.08.2018 08:00 15,9 C 79 % 1018,0 hPa 0,0 l/m 0,6 km/h W-SW 12,3 C 15,9 C 0,4 km/h
30.08.2018 09:00 15,5 C 82 % 1018,6 hPa 0,0 l/m 22,7 km/h S 12,4 C 9,8 C 12,6 km/h
30.08.2018 10:00 16,6 C 82 % 1018,6 hPa 0,0 l/m 0,0 km/h S-SW 13,5 C 16,6 C 0,0 km/h
30.08.2018 11:00 18,4 C 77 % 1018,6 hPa 0,0 l/m 0,0 km/h NO 14,3 C 18,4 C 0,0 km/h
30.08.2018 12:00 18,3 C 77 % 1018,4 hPa 0,0 l/m 0,0 km/h SO 14,2 C 18,3 C 0,0 km/h
30.08.2018 13:00 20,6 C 69 % 1018,2 hPa 0,0 l/m 0,0 km/h NW 14,7 C 20,6 C 0,0 km/h
30.08.2018 14:00 21,1 C 67 % 1018,0 hPa 0,0 l/m 0,0 km/h NO 14,7 C 21,1 C 0,0 km/h
30.08.2018 15:00 21,3 C 62 % 1017,5 hPa 0,0 l/m 0,0 km/h NO 13,7 C 21,3 C 0,0 km/h
30.08.2018 16:00 22,1 C 59 % 1017,2 hPa 0,0 l/m 0,0 km/h N-NO 13,7 C 22,1 C 0,0 km/h
30.08.2018 17:00 23,4 C 51 % 1017,2 hPa 0,0 l/m 0,0 km/h N-NO 12,7 C 23,4 C 0,0 km/h
30.08.2018 18:00 20,6 C 63 % 1017,2 hPa 0,0 l/m 0,0 km/h NO 13,3 C 20,6 C 0,0 km/h
30.08.2018 19:00 19,4 C 67 % 1017,4 hPa 0,0 l/m 0,0 km/h NO 13,1 C 19,4 C 0,0 km/h
30.08.2018 20:00 18,0 C 71 % 1017,8 hPa 0,0 l/m 0,0 km/h NO 12,7 C 18,0 C 0,0 km/h
30.08.2018 21:00 16,2 C 78 % 1017,9 hPa 0,0 l/m 0,0 km/h NO 12,4 C 16,2 C 0,0 km/h
30.08.2018 22:00 15,6 C 80 % 1017,8 hPa 0,0 l/m 0,0 km/h NO 12,2 C 15,6 C 0,0 km/h
30.08.2018 23:00 14,9 C 82 % 1017,7 hPa 0,0 l/m 0,0 km/h NO 11,9 C 14,9 C 0,0 km/h
31.08.2018 00:00 14,9 C 82 % 1017,8 hPa 0,0 l/m 0,0 km/h N-NO 11,9 C 14,9 C 0,0 km/h
31.08.2018 01:00 14,7 C 83 % 1017,5 hPa 0,0 l/m 0,0 km/h N-NO 11,8 C 14,7 C 0,0 km/h
31.08.2018 02:00 14,5 C 83 % 1017,4 hPa 0,0 l/m 0,0 km/h O 11,6 C 14,5 C 0,0 km/h
31.08.2018 03:00 14,4 C 83 % 1016,6 hPa 0,0 l/m 0,0 km/h N-NO 11,5 C 14,4 C 0,0 km/h
31.08.2018 04:00 14,1 C 83 % 1016,2 hPa 0,0 l/m 0,0 km/h N-NO 11,3 C 14,1 C 0,0 km/h
31.08.2018 05:00 13,6 C 83 % 1015,7 hPa 0,0 l/m 0,0 km/h N 10,8 C 13,6 C 0,0 km/h
31.08.2018 06:00 13,6 C 82 % 1016,2 hPa 0,0 l/m 0,0 km/h N 10,6 C 13,6 C 0,0 km/h
31.08.2018 07:00 14,1 C 82 % 1016,3 hPa 0,0 l/m 0,0 km/h NO 11,1 C 14,1 C 0,0 km/h
31.08.2018 08:00 14,2 C 82 % 1016,1 hPa 0,5 l/m 0,0 km/h N 11,2 C 14,2 C 0,0 km/h
31.08.2018 09:00 13,8 C 82 % 1016,6 hPa 1,6 l/m 0,0 km/h N 10,8 C 13,8 C 0,0 km/h
31.08.2018 10:00 13,2 C 80 % 1016,8 hPa 1,6 l/m 0,0 km/h W 9,8 C 13,2 C 0,0 km/h
31.08.2018 11:00 13,4 C 79 % 1017,2 hPa 1,6 l/m 0,0 km/h NW 9,8 C 13,4 C 0,0 km/h
31.08.2018 12:00 13,4 C 77 % 1017,5 hPa 2,1 l/m 1,9 km/h NW 9,5 C 13,4 C 1,1 km/h
31.08.2018 13:00 13,4 C 74 % 1017,7 hPa 1,6 l/m 0,0 km/h NW 8,9 C 13,4 C 0,0 km/h
31.08.2018 14:00 13,3 C 72 % 1017,6 hPa 2,6 l/m 3,9 km/h W 8,4 C 13,3 C 2,2 km/h
31.08.2018 15:00 13,2 C 70 % 1017,8 hPa 2,1 l/m 0,0 km/h NW 7,9 C 13,2 C 0,0 km/h
31.08.2018 16:00 13,2 C 68 % 1017,9 hPa 2,6 l/m 0,0 km/h N-NW 7,4 C 13,2 C 0,0 km/h
31.08.2018 17:00 13,3 C 66 % 1017,9 hPa 1,6 l/m 0,0 km/h NW 7,1 C 13,3 C 0,0 km/h
31.08.2018 18:00 13,2 C 65 % 1018,2 hPa 1,6 l/m 0,0 km/h NW 6,8 C 13,2 C 0,0 km/h
31.08.2018 19:00 13,2 C 65 % 1018,3 hPa 0,0 l/m 0,0 km/h NW 6,8 C 13,2 C 0,0 km/h
31.08.2018 20:00 13,3 C 65 % 1018,8 hPa 1,0 l/m 0,0 km/h NW 6,9 C 13,3 C 0,0 km/h
31.08.2018 21:00 13,1 C 64 % 1019,3 hPa 1,0 l/m 0,0 km/h NW 6,4 C 13,1 C 0,0 km/h
31.08.2018 22:00 13,2 C 64 % 1019,3 hPa 0,0 l/m 0,0 km/h NW 6,5 C 13,2 C 0,0 km/h
31.08.2018 23:00 13,2 C 64 % 1019,4 hPa 0,0 l/m 0,0 km/h NW 6,5 C 13,2 C 0,0 km/h
01.09.2018 00:00 13,1 C 63 % 1019,3 hPa 0,0 l/m 0,0 km/h NW 6,2 C 13,1 C 0,0 km/h
01.09.2018 01:00 13,0 C 63 % 1019,0 hPa 0,5 l/m 0,0 km/h NW 6,1 C 13,0 C 0,0 km/h
01.09.2018 02:00 13,0 C 62 % 1018,6 hPa 0,0 l/m 0,0 km/h NW 5,9 C 13,0 C 0,0 km/h
01.09.2018 03:00 13,0 C 61 % 1018,7 hPa 0,0 l/m 0,0 km/h NW 5,7 C 13,0 C 0,0 km/h
01.09.2018 04:00 12,9 C 61 % 1019,0 hPa 0,0 l/m 0,0 km/h NW 5,6 C 12,9 C 0,0 km/h
01.09.2018 05:00 13,0 C 61 % 1018,6 hPa 0,0 l/m 0,0 km/h NW 5,7 C 13,0 C 0,0 km/h
01.09.2018 06:00 12,9 C 60 % 1018,8 hPa 0,0 l/m 0,0 km/h NW 5,3 C 12,9 C 0,0 km/h
01.09.2018 07:00 13,3 C 59 % 1019,1 hPa 0,0 l/m 0,0 km/h NW 5,5 C 13,3 C 0,0 km/h
01.09.2018 08:00 14,1 C 54 % 1019,5 hPa 0,0 l/m 0,0 km/h NW 4,9 C 14,1 C 0,0 km/h
01.09.2018 09:00 14,8 C 53 % 1019,9 hPa 0,0 l/m 0,0 km/h NO 5,3 C 14,8 C 0,0 km/h
01.09.2018 10:00 17,2 C 83 % 1020,4 hPa 0,0 l/m 0,0 km/h N-NO 14,3 C 17,2 C 0,0 km/h
01.09.2018 11:00 18,9 C 74 % 1020,6 hPa 0,0 l/m 3,9 km/h N-NW 14,2 C 18,9 C 2,2 km/h
01.09.2018 12:00 18,6 C 77 % 1020,4 hPa 0,0 l/m 0,0 km/h N-NO 14,5 C 18,6 C 0,0 km/h
01.09.2018 13:00 17,8 C 75 % 1020,2 hPa 0,0 l/m 0,0 km/h NW 13,3 C 17,8 C 0,0 km/h
01.09.2018 14:00 19,8 C 67 % 1020,1 hPa 0,0 l/m 12,3 km/h O-NO 13,5 C 17,7 C 6,8 km/h
01.09.2018 15:00 19,5 C 64 % 1020,0 hPa 0,0 l/m 0,0 km/h SO 12,5 C 19,5 C 0,0 km/h
01.09.2018 16:00 19,4 C 63 % 1020,0 hPa 0,0 l/m 0,0 km/h O-SO 12,2 C 19,4 C 0,0 km/h
01.09.2018 17:00 18,7 C 65 % 1020,1 hPa 0,0 l/m 0,0 km/h O-SO 12,0 C 18,7 C 0,0 km/h
01.09.2018 18:00 18,9 C 64 % 1020,0 hPa 0,0 l/m 0,0 km/h O-SO 11,9 C 18,9 C 0,0 km/h
01.09.2018 19:00 17,9 C 73 % 1020,3 hPa 0,0 l/m 0,0 km/h O-NO 13,0 C 17,9 C 0,0 km/h
01.09.2018 20:00 16,6 C 76 % 1020,5 hPa 0,0 l/m 0,0 km/h O-NO 12,3 C 16,6 C 0,0 km/h
01.09.2018 21:00 15,9 C 79 % 1020,6 hPa 0,0 l/m 0,0 km/h SO 12,3 C 15,9 C 0,0 km/h
01.09.2018 22:00 15,5 C 80 % 1020,6 hPa 0,0 l/m 0,0 km/h O 12,1 C 15,5 C 0,0 km/h
01.09.2018 23:00 15,2 C 81 % 1020,3 hPa 0,0 l/m 0,0 km/h O-SO 12,0 C 15,2 C 0,0 km/h
02.09.2018 00:00 14,4 C 82 % 1020,1 hPa 0,0 l/m 0,0 km/h O 11,4 C 14,4 C 0,0 km/h
02.09.2018 01:00 13,8 C 82 % 1019,8 hPa 0,0 l/m 0,0 km/h O 10,8 C 13,8 C 0,0 km/h
02.09.2018 02:00 13,1 C 83 % 1019,7 hPa 0,0 l/m 0,0 km/h O 10,3 C 13,1 C 0,0 km/h
02.09.2018 03:00 12,9 C 83 % 1019,6 hPa 0,0 l/m 0,0 km/h N-NO 10,1 C 12,9 C 0,0 km/h
02.09.2018 04:00 13,3 C 83 % 1019,2 hPa 0,0 l/m 0,0 km/h N-NO 10,5 C 13,3 C 0,0 km/h
02.09.2018 05:00 13,1 C 83 % 1018,7 hPa 0,0 l/m 0,0 km/h N-NO 10,3 C 13,1 C 0,0 km/h
02.09.2018 06:00 12,9 C 83 % 1018,7 hPa 0,0 l/m 0,0 km/h N-NO 10,1 C 12,9 C 0,0 km/h
02.09.2018 07:00 12,4 C 83 % 1018,6 hPa 0,0 l/m 0,0 km/h N-NO 9,6 C 12,4 C 0,0 km/h
02.09.2018 08:00 12,8 C 83 % 1018,4 hPa 0,0 l/m 0,0 km/h W-SW 10,0 C 12,8 C 0,0 km/h
02.09.2018 09:00 13,4 C 83 % 1018,4 hPa 0,0 l/m 0,0 km/h SW 10,6 C 13,4 C 0,0 km/h
02.09.2018 10:00 14,8 C 82 % 1018,5 hPa 0,0 l/m 0,0 km/h NO 11,8 C 14,8 C 0,0 km/h
02.09.2018 11:00 16,8 C 77 % 1018,2 hPa 0,0 l/m 0,6 km/h O-NO 12,7 C 16,8 C 0,4 km/h
02.09.2018 12:00 18,2 C 71 % 1017,8 hPa 0,0 l/m 18,8 km/h N-NO 12,9 C 14,1 C 10,4 km/h
02.09.2018 13:00 18,8 C 68 % 1017,4 hPa 0,0 l/m 0,0 km/h N 12,8 C 18,8 C 0,0 km/h
02.09.2018 14:00 18,3 C 69 % 1017,3 hPa 0,0 l/m 18,1 km/h NO 12,5 C 14,4 C 10,1 km/h
02.09.2018 15:00 18,2 C 70 % 1017,0 hPa 0,0 l/m 0,0 km/h N-NO 12,6 C 18,2 C 0,0 km/h
02.09.2018 16:00 17,4 C 72 % 1016,8 hPa 0,0 l/m 0,0 km/h NO 12,3 C 17,4 C 0,0 km/h
02.09.2018 17:00 17,1 C 75 % 1017,0 hPa 0,0 l/m 0,0 km/h N-NO 12,6 C 17,1 C 0,0 km/h
02.09.2018 18:00 17,2 C 75 % 1016,7 hPa 0,0 l/m 0,0 km/h N 12,7 C 17,2 C 0,0 km/h
Min-Datum _ 02.09.18 27.08.18 29.08.18 - 27.08.18 - 01.09.18 30.08.18 27.08.18
_ Min-Zeit 07:53 10:53 10:53 - 00:53 - 08:53 09:53 00:53
Minimum _ 12,4 C 39 % 1010,8 hPa - 0,0 km/h - 4,9 C 9,8 C 0,0 km/h
Max-Datum _ 28.08.18 28.08.18 01.09.18 29.08.18 27.08.18 - 29.08.18 28.08.18 27.08.18
_ Max-Zeit 17:53 04:53 11:53 22:53 10:53 - 10:53 17:53 10:53
Maximum _ 28,1 C 83 % 1020,6 hPa 4,1 l/m 24,6 km/h
SW
- 17,7 C 28,1 C 13,7 km/h
SW
Durchschnitt _ 17,5 C 71 % 1016,2 hPa #29,0 l/m 1,8 km/h NW 12,0 C 17,2 C 1,0 km/h
www.sexauwetter.de